createdAt,value
2023-04-24T07:11:18.715Z,1.23
2023-04-24T07:13:45.728Z,1.26
2023-04-24T07:16:12.633Z,1.27
2023-04-24T07:18:40.860Z,1.31
2023-04-24T07:21:08.313Z,1.31
2023-04-24T07:23:35.175Z,1.36
2023-04-24T07:26:02.101Z,1.39
2023-04-24T07:28:32.064Z,1.04
2023-04-24T07:31:00.805Z,1.17
2023-04-24T07:33:28.065Z,1.36
2023-04-24T07:35:55.638Z,1.44
2023-04-24T07:38:42.491Z,1.09
2023-04-24T07:41:29.502Z,1.47
2023-04-24T07:44:16.439Z,1.51
2023-04-24T07:47:03.427Z,1.51
2023-04-24T07:49:50.434Z,1.45
2023-04-24T07:52:37.366Z,1.56
2023-04-24T07:55:27.242Z,1.56
2023-04-24T07:58:15.103Z,1.30
2023-04-24T08:01:02.090Z,1.59
2023-04-24T08:03:49.131Z,1.58
2023-04-24T08:06:36.348Z,1.63
2023-04-24T08:09:24.587Z,1.65
2023-04-24T08:12:12.929Z,1.65
2023-04-24T08:14:59.946Z,1.51
2023-04-24T08:17:46.880Z,1.68
2023-04-24T08:20:36.757Z,1.71
2023-04-24T08:23:23.763Z,1.74
2023-04-24T08:26:10.752Z,1.68
2023-04-24T08:28:58.123Z,1.78
2023-04-24T08:31:45.067Z,1.72
2023-04-24T08:34:32.210Z,1.83
2023-04-24T08:37:19.287Z,1.86
2023-04-24T08:40:06.249Z,1.78
2023-04-24T08:42:57.311Z,1.93
2023-04-24T08:45:45.785Z,1.73
2023-04-24T08:48:33.334Z,1.99
2023-04-24T08:51:20.955Z,1.88
2023-04-24T08:54:08.308Z,2.07
2023-04-24T08:56:58.030Z,2.01
2023-04-24T08:59:45.182Z,2.14
2023-04-24T09:02:32.549Z,2.19
2023-04-24T09:05:19.874Z,2.24
2023-04-24T09:08:13.136Z,2.28
2023-04-24T09:11:00.670Z,2.20
2023-04-24T09:13:47.758Z,2.37
2023-04-24T09:16:15.782Z,2.42
2023-04-24T09:18:43.441Z,2.46
2023-04-24T09:21:11.667Z,2.50
2023-04-24T09:23:39.728Z,2.55
2023-04-24T09:26:06.890Z,2.58
2023-04-24T09:28:36.990Z,2.62
2023-04-24T09:31:10.935Z,2.64
2023-04-24T09:33:38.533Z,2.61
2023-04-24T09:36:07.055Z,2.39
2023-04-24T09:38:38.717Z,2.77
2023-04-24T09:41:08.515Z,2.64
2023-04-24T09:43:36.801Z,2.75
2023-04-24T09:46:08.700Z,2.90
2023-04-24T09:48:37.886Z,2.97
2023-04-24T09:51:11.870Z,3.01
2023-04-24T09:53:41.082Z,3.05
2023-04-24T09:56:14.030Z,2.91
2023-04-24T09:58:41.102Z,3.14
2023-04-24T10:01:08.306Z,3.20
2023-04-24T10:03:36.702Z,3.11
2023-04-24T10:06:10.251Z,3.29
2023-04-24T10:08:38.507Z,3.24
2023-04-24T10:11:05.851Z,3.34
2023-04-24T10:13:34.011Z,3.39
2023-04-24T10:16:02.029Z,3.48
2023-04-24T10:18:30.959Z,3.56
2023-04-24T10:20:59.568Z,3.56
2023-04-24T10:23:27.001Z,3.45
2023-04-24T10:25:55.409Z,3.85
2023-04-24T10:28:43.593Z,3.96
2023-04-24T10:31:31.093Z,4.01
2023-04-24T10:34:19.614Z,4.27
2023-04-24T10:37:11.780Z,4.42
2023-04-24T10:39:58.956Z,4.56
2023-04-24T10:42:48.827Z,4.62
2023-04-24T10:45:42.770Z,4.32
2023-04-24T10:48:32.512Z,4.79
2023-04-24T10:51:19.573Z,4.86
2023-04-24T10:54:06.487Z,4.85
2023-04-24T10:56:54.233Z,4.93
2023-04-24T10:59:56.642Z,4.97
2023-04-24T11:02:58.020Z,5.05
2023-04-24T11:06:13.873Z,5.08
2023-04-24T11:09:09.189Z,5.07
2023-04-24T11:11:58.330Z,5.05
2023-04-24T11:14:47.741Z,5.06
2023-04-24T11:17:50.125Z,5.05
2023-04-24T11:20:38.989Z,4.90
2023-04-24T11:23:26.992Z,4.94
2023-04-24T11:26:31.815Z,5.10
2023-04-24T11:29:28.446Z,5.12
2023-04-24T11:32:15.427Z,5.17
2023-04-24T11:35:02.598Z,5.19
2023-04-24T11:40:50.543Z,5.22
2023-04-24T11:43:39.384Z,5.27
2023-04-24T11:46:26.615Z,5.33
2023-04-24T11:49:14.107Z,5.35
2023-04-24T11:52:01.341Z,5.34
2023-04-24T11:54:48.707Z,5.40
2023-04-24T11:57:35.853Z,5.40
2023-04-24T12:00:24.447Z,5.02
2023-04-24T12:03:12.029Z,5.40
2023-04-24T12:06:00.160Z,5.36
2023-04-24T12:08:50.211Z,5.45
2023-04-24T12:11:38.838Z,5.47
2023-04-24T12:14:32.863Z,5.46
2023-04-24T12:17:20.053Z,5.46
2023-04-24T12:20:04.586Z,5.45
2023-04-24T12:22:48.622Z,5.47
2023-04-24T12:25:17.159Z,5.38
2023-04-24T12:27:45.421Z,5.51
2023-04-24T12:30:17.668Z,5.53
2023-04-24T12:33:07.921Z,5.55
2023-04-24T12:35:54.875Z,5.58
2023-04-24T12:38:47.181Z,5.59
2023-04-24T12:41:35.092Z,5.60
2023-04-24T12:44:22.043Z,5.55
2023-04-24T12:47:09.530Z,5.57
2023-04-24T12:49:56.801Z,5.57
2023-04-24T12:52:44.826Z,5.57
2023-04-24T12:55:32.036Z,5.58
2023-04-24T12:58:19.107Z,5.55
2023-04-24T13:00:46.863Z,5.54
2023-04-24T13:03:14.517Z,5.54
2023-04-24T13:05:42.360Z,5.52
2023-04-24T13:08:09.531Z,5.53
2023-04-24T13:10:36.892Z,5.54
2023-04-24T13:13:04.771Z,5.25
2023-04-24T13:15:32.069Z,5.31
2023-04-24T13:17:59.188Z,5.47
2023-04-24T13:20:27.215Z,5.48
2023-04-24T13:22:54.190Z,5.47
2023-04-24T13:25:21.504Z,5.44
2023-04-24T13:27:48.548Z,5.42
2023-04-24T13:30:15.616Z,5.49
2023-04-24T13:32:42.594Z,5.53
2023-04-24T13:35:09.789Z,5.53
2023-04-24T13:37:36.799Z,5.57
2023-04-24T13:40:07.082Z,5.61
2023-04-24T13:42:34.478Z,5.59
2023-04-24T13:45:06.072Z,5.60
2023-04-24T13:47:42.281Z,5.57
2023-04-24T13:50:10.889Z,5.56
2023-04-24T13:52:37.847Z,5.29
2023-04-24T13:55:05.239Z,5.52
2023-04-24T13:57:32.579Z,5.39
2023-04-24T14:00:02.576Z,5.51
2023-04-24T14:02:34.245Z,5.46
2023-04-24T14:05:01.489Z,5.40
2023-04-24T14:07:29.282Z,5.38
2023-04-24T14:09:56.364Z,5.30
2023-04-24T14:12:23.556Z,5.28
2023-04-24T14:14:50.566Z,5.29
2023-04-24T14:17:17.526Z,5.26
2023-04-24T14:19:44.848Z,5.25
2023-04-24T14:22:11.798Z,5.15
2023-04-24T14:24:38.880Z,5.22
2023-04-24T14:27:05.902Z,5.19
2023-04-24T14:29:34.860Z,5.12
2023-04-24T14:32:02.396Z,5.21
2023-04-24T14:34:29.334Z,5.22
2023-04-24T14:36:56.619Z,5.22
2023-04-24T14:39:23.677Z,5.20
2023-04-24T14:41:50.803Z,5.11
2023-04-24T14:44:17.775Z,5.15
2023-04-24T14:46:45.163Z,5.11
2023-04-24T14:49:13.535Z,4.81
2023-04-24T14:51:40.534Z,5.06
2023-04-24T14:54:08.178Z,5.03
2023-04-24T14:56:35.544Z,5.02
2023-04-24T14:59:03.137Z,5.01
2023-04-24T15:01:30.658Z,4.98
2023-04-24T15:03:57.779Z,4.57
2023-04-24T15:06:25.950Z,4.97
2023-04-24T15:08:53.042Z,4.97
2023-04-24T15:11:19.986Z,5.00
2023-04-24T15:13:47.526Z,4.95
2023-04-24T15:16:15.448Z,5.02
2023-04-24T15:18:42.747Z,5.02
2023-04-24T15:21:09.765Z,5.02
2023-04-24T15:23:36.758Z,5.02
2023-04-24T15:26:23.570Z,5.01
2023-04-24T15:29:10.830Z,4.98
2023-04-24T15:31:58.070Z,4.91
2023-04-24T15:34:45.883Z,4.94
2023-04-24T15:37:32.928Z,4.94
2023-04-24T15:40:19.858Z,4.94
2023-04-24T15:43:06.886Z,4.96
2023-04-24T15:45:54.341Z,4.97
2023-04-24T15:48:41.421Z,4.98
2023-04-24T15:51:28.363Z,4.97
2023-04-24T15:54:15.595Z,4.96
2023-04-24T15:57:02.603Z,4.91
2023-04-24T15:59:49.971Z,4.91
2023-04-24T16:02:39.833Z,4.95
2023-04-24T16:05:27.507Z,4.96
2023-04-24T16:08:14.620Z,4.96
2023-04-24T16:11:02.010Z,4.96
2023-04-24T16:13:49.204Z,4.93
2023-04-24T16:16:36.159Z,4.93
2023-04-24T16:19:23.598Z,4.91
2023-04-24T16:22:10.542Z,4.90
2023-04-24T16:24:57.526Z,4.89
2023-04-24T16:27:45.552Z,4.52
2023-04-24T16:30:33.005Z,4.64
2023-04-24T16:33:20.007Z,4.90
2023-04-24T16:36:07.636Z,4.86
2023-04-24T16:38:55.281Z,4.92
2023-04-24T16:41:42.380Z,4.91
2023-04-24T16:44:29.733Z,4.91
2023-04-24T16:47:16.880Z,4.92
2023-04-24T16:50:03.790Z,4.91
2023-04-24T16:52:50.814Z,4.87
2023-04-24T16:55:37.904Z,4.89
2023-04-24T16:58:24.999Z,4.87
2023-04-24T17:01:11.939Z,4.85
2023-04-24T17:03:59.260Z,4.83
2023-04-24T17:06:46.258Z,4.80
2023-04-24T17:09:33.261Z,4.77
2023-04-24T17:12:20.146Z,4.75
2023-04-24T17:15:07.065Z,4.73
2023-04-24T17:17:54.012Z,4.68
2023-04-24T17:20:41.110Z,4.63
2023-04-24T17:23:28.118Z,4.60
2023-04-24T17:26:15.119Z,4.58
2023-04-24T17:29:02.065Z,4.55
2023-04-24T17:31:49.132Z,4.52
2023-04-24T17:34:36.168Z,4.48
2023-04-24T17:37:23.744Z,4.42
2023-04-24T17:40:10.666Z,4.45
2023-04-24T17:42:57.583Z,4.43
2023-04-24T17:45:44.472Z,4.43
2023-04-24T17:48:35.182Z,4.40
2023-04-24T17:51:21.976Z,4.44
2023-04-24T17:54:08.989Z,4.42
2023-04-24T17:56:56.163Z,4.39
2023-04-24T17:59:43.263Z,4.36
2023-04-24T18:02:30.100Z,4.31
2023-04-24T18:05:17.249Z,4.28
2023-04-24T18:08:04.126Z,4.26
2023-04-24T18:10:52.541Z,4.24
2023-04-24T18:13:39.410Z,4.20
2023-04-24T18:16:26.965Z,4.17
2023-04-24T18:19:13.755Z,4.12
2023-04-24T18:22:00.799Z,4.06
2023-04-24T18:24:47.666Z,4.04
2023-04-24T18:27:34.590Z,4.01
2023-04-24T18:30:21.690Z,3.99
2023-04-24T18:33:09.967Z,3.94
2023-04-24T18:35:58.035Z,3.59
2023-04-24T18:38:44.978Z,3.87
2023-04-24T18:41:31.941Z,3.84
2023-04-24T18:44:18.978Z,3.82
2023-04-24T18:47:05.988Z,3.78
2023-04-24T18:49:53.297Z,3.74
2023-04-24T18:52:40.150Z,3.70
2023-04-24T18:55:27.472Z,3.66
2023-04-24T18:58:14.425Z,3.58
2023-04-24T19:01:01.603Z,3.58
2023-04-24T19:03:48.727Z,3.54
2023-04-24T19:06:35.814Z,3.51
2023-04-24T19:09:23.164Z,3.41
2023-04-24T19:12:10.570Z,3.29
2023-04-24T19:14:57.406Z,3.40
2023-04-24T19:17:44.819Z,3.34
2023-04-24T19:20:32.001Z,3.23
2023-04-24T19:23:18.980Z,3.29
2023-04-24T19:26:05.816Z,3.26
2023-04-24T19:28:52.938Z,2.85
2023-04-24T19:31:39.967Z,3.19
2023-04-24T19:34:27.178Z,3.14
2023-04-24T19:37:14.056Z,3.09
2023-04-24T19:40:01.140Z,3.06
2023-04-24T19:42:48.048Z,2.99
2023-04-24T19:45:35.153Z,2.99
2023-04-24T19:48:22.394Z,2.95
2023-04-24T19:51:09.420Z,2.90
2023-04-24T19:53:56.344Z,2.84
2023-04-24T19:56:43.445Z,2.82
2023-04-24T19:59:31.023Z,2.78
2023-04-24T20:02:19.199Z,2.75
2023-04-24T20:05:06.367Z,2.72
2023-04-24T20:07:53.303Z,2.69
2023-04-24T20:10:40.092Z,2.65
2023-04-24T20:13:27.161Z,2.63
2023-04-24T20:16:14.119Z,2.21
2023-04-24T20:19:01.219Z,2.43
2023-04-24T20:21:48.612Z,2.50
2023-04-24T20:24:35.487Z,2.52
2023-04-24T20:27:22.450Z,2.49
2023-04-24T20:30:09.589Z,2.49
2023-04-24T20:32:56.693Z,2.43
2023-04-24T20:35:43.814Z,2.44
2023-04-24T20:38:30.668Z,2.44
2023-04-24T20:41:17.746Z,2.32
2023-04-24T20:44:04.563Z,2.43
2023-04-24T20:46:51.829Z,2.38
2023-04-24T20:49:38.867Z,2.38
2023-04-24T20:52:25.861Z,2.40
2023-04-24T20:55:12.637Z,2.39
2023-04-24T20:58:00.768Z,2.37
2023-04-24T21:00:49.170Z,2.29
2023-04-24T21:03:36.829Z,2.34
2023-04-24T21:06:24.102Z,2.36
2023-04-24T21:09:11.145Z,2.30
2023-04-24T21:11:57.985Z,2.32
2023-04-24T21:14:44.836Z,2.29
2023-04-24T21:17:31.818Z,2.25
2023-04-24T21:20:19.183Z,2.24
2023-04-24T21:23:06.044Z,2.20
2023-04-24T21:25:53.544Z,2.23
2023-04-24T21:28:40.390Z,2.23
2023-04-24T21:31:27.306Z,2.22
2023-04-24T21:34:14.128Z,1.94
2023-04-24T21:37:01.114Z,2.19
2023-04-24T21:39:47.902Z,2.14
2023-04-24T21:42:35.611Z,2.18
2023-04-24T21:45:22.591Z,2.20
2023-04-24T21:48:09.666Z,2.20
2023-04-24T21:50:56.639Z,2.20
2023-04-24T21:53:43.753Z,2.20
2023-04-24T21:56:30.797Z,2.17
2023-04-24T21:59:18.308Z,2.15
2023-04-24T22:02:05.262Z,2.11
2023-04-24T22:04:52.526Z,2.19
2023-04-24T22:07:39.475Z,1.85
2023-04-24T22:10:27.362Z,2.18
2023-04-24T22:13:14.267Z,2.19
2023-04-24T22:16:01.641Z,2.18
2023-04-24T22:18:48.456Z,2.18
2023-04-24T22:21:35.999Z,2.19
2023-04-24T22:24:22.948Z,2.08
2023-04-24T22:27:10.073Z,2.19
2023-04-24T22:29:57.029Z,2.19
2023-04-24T22:32:44.209Z,2.18
2023-04-24T22:35:31.056Z,2.04
2023-04-24T22:38:18.737Z,2.08
2023-04-24T22:41:05.582Z,2.12
2023-04-24T22:43:52.767Z,2.13
2023-04-24T22:46:39.616Z,1.73
2023-04-24T22:49:26.869Z,2.11
2023-04-24T22:52:13.802Z,2.09
2023-04-24T22:55:01.061Z,2.10
2023-04-24T22:57:48.111Z,1.92
2023-04-24T23:00:35.626Z,1.97
2023-04-24T23:03:22.897Z,2.10
2023-04-24T23:06:10.029Z,2.09
2023-04-24T23:08:57.003Z,2.07
2023-04-24T23:11:44.034Z,2.02
2023-04-24T23:14:30.902Z,2.07
2023-04-24T23:17:18.241Z,2.05
2023-04-24T23:20:05.394Z,2.04
2023-04-24T23:22:52.400Z,2.03
2023-04-24T23:25:39.275Z,2.04
2023-04-24T23:28:26.239Z,2.03
2023-04-24T23:31:13.069Z,2.01
2023-04-24T23:34:00.072Z,2.02
2023-04-24T23:36:47.174Z,2.03
2023-04-24T23:39:34.307Z,2.02
2023-04-24T23:42:21.201Z,2.01
2023-04-24T23:45:08.336Z,2.01
2023-04-24T23:47:55.165Z,2.00
2023-04-24T23:50:42.299Z,1.99
2023-04-24T23:53:29.634Z,1.98
2023-04-24T23:56:16.793Z,1.97
2023-04-24T23:59:03.689Z,1.94
